Time;durP1;ratioP1;P1;durP2;ratioP2;P2;SDS_P1;SDS_P2;PMS_P1;PMS_P2;Temp;Humidity;BMP_temperature;BMP_pressure;BME280_temperature;BME280_humidity;BME280_pressure;Samples;Min_cycle;Max_cycle;Signal;HPM_P1;HPM_P2
2022/11/25 00:00:49;;;;;;;16.80;11.60;;;25.80;99.90;;;;;;1728376;81;21294;-70
2022/11/25 00:03:20;;;;;;;16.97;12.73;;;25.80;99.90;;;;;;1773004;79;21445;-72
2022/11/25 00:05:52;;;;;;;22.85;15.00;;;25.80;99.90;;;;;;1788538;78;21628;-72
2022/11/25 00:08:23;;;;;;;18.62;13.53;;;25.80;99.90;;;;;;1794637;78;21126;-73
2022/11/25 00:11:08;;;;;;;18.07;13.22;;;25.90;99.90;;;;;;1748574;80;21230;-74
2022/11/25 00:13:36;;;;;;;18.95;12.78;;;25.80;99.90;;;;;;1775895;79;21663;-73
2022/11/25 00:16:11;;;;;;;18.82;11.83;;;25.80;99.90;;;;;;1789876;78;21679;-73
2022/11/25 00:18:46;;;;;;;19.48;12.82;;;25.90;99.90;;;;;;1792800;78;21137;-73
2022/11/25 00:21:19;;;;;;;22.17;13.45;;;25.90;99.90;;;;;;1793981;78;21429;-72
2022/11/25 00:23:59;;;;;;;19.05;13.58;;;25.90;99.90;;;;;;1763025;80;21148;-72
2022/11/25 00:26:34;;;;;;;16.95;12.13;;;25.90;99.90;;;;;;1782294;78;21210;-73
2022/11/25 00:29:09;;;;;;;19.25;12.20;;;25.90;99.90;;;;;;1763197;79;21787;-73
2022/11/25 00:31:41;;;;;;;19.23;11.25;;;25.90;99.90;;;;;;1756000;79;21168;-73
2022/11/25 00:34:15;;;;;;;17.27;11.83;;;25.90;99.90;;;;;;1766656;80;21097;-72
2022/11/25 00:36:49;;;;;;;17.12;11.95;;;25.90;99.90;;;;;;1784444;78;21613;-72
2022/11/25 00:39:24;;;;;;;15.80;11.95;;;26.00;99.90;;;;;;1759711;80;21156;-72
2022/11/25 00:44:44;;;;;;;18.57;14.65;;;26.00;99.90;;;;;;1799702;78;21170;-72
2022/11/25 00:47:18;;;;;;;26.20;17.57;;;26.00;99.90;;;;;;1801633;78;21602;-71
2022/11/25 00:49:52;;;;;;;24.45;16.30;;;26.00;99.90;;;;;;1769764;79;21857;-71
2022/11/25 00:52:25;;;;;;;17.85;12.75;;;26.00;99.90;;;;;;1795457;78;21191;-73
2022/11/25 00:54:57;;;;;;;17.50;12.50;;;26.00;99.90;;;;;;1796119;79;21232;-73
2022/11/25 00:57:31;;;;;;;18.25;12.85;;;26.00;99.90;;;;;;1782651;79;21146;-73
2022/11/25 01:00:02;;;;;;;21.97;14.60;;;26.10;99.90;;;;;;1796412;78;22058;-73
2022/11/25 01:02:33;;;;;;;33.00;21.25;;;26.00;99.90;;;;;;1784975;78;21181;-73
2022/11/25 01:05:05;;;;;;;20.20;14.25;;;26.10;99.90;;;;;;1758557;80;21208;-73
2022/11/25 01:07:36;;;;;;;17.10;11.93;;;26.10;99.90;;;;;;1793341;77;21155;-71
2022/11/25 01:10:09;;;;;;;20.95;15.78;;;26.10;99.90;;;;;;1755797;80;21292;-72
2022/11/25 01:12:41;;;;;;;19.27;13.83;;;26.20;99.90;;;;;;1788698;78;21202;-73
2022/11/25 01:15:12;;;;;;;18.95;14.45;;;26.20;99.90;;;;;;1785046;78;21167;-72
2022/11/25 01:17:43;;;;;;;24.63;14.85;;;26.20;99.90;;;;;;1774238;79;21188;-72
2022/11/25 01:20:16;;;;;;;18.87;13.43;;;26.20;99.90;;;;;;1779330;78;21226;-73
2022/11/25 01:22:47;;;;;;;15.78;10.63;;;26.20;99.90;;;;;;1748620;80;21278;-73
2022/11/25 01:25:19;;;;;;;18.05;11.38;;;26.30;99.90;;;;;;1796739;78;21183;-72
2022/11/25 01:27:51;;;;;;;13.60;9.93;;;26.30;99.90;;;;;;1757009;80;21408;-72
2022/11/25 01:30:23;;;;;;;16.12;10.70;;;26.30;99.90;;;;;;1784861;78;21128;-71
2022/11/25 01:32:54;;;;;;;15.28;9.53;;;26.30;99.90;;;;;;1743067;80;21191;-72
2022/11/25 01:35:25;;;;;;;21.48;14.23;;;26.40;99.90;;;;;;1754269;80;21772;-73
2022/11/25 01:40:47;;;;;;;21.05;11.50;;;26.40;99.90;;;;;;1808056;76;21499;-73
2022/11/25 01:43:18;;;;;;;12.75;9.63;;;26.50;99.90;;;;;;1810465;78;21384;-72
2022/11/25 01:45:49;;;;;;;12.88;9.40;;;26.60;99.90;;;;;;1740506;81;21269;-73
2022/11/25 01:48:26;;;;;;;12.40;8.25;;;26.60;99.90;;;;;;1765159;79;21125;-72
2022/11/25 01:50:57;;;;;;;19.32;10.63;;;26.70;99.90;;;;;;1811064;76;21188;-74
2022/11/25 01:53:28;;;;;;;12.03;9.75;;;26.80;99.90;;;;;;1803965;78;21611;-73
2022/11/25 01:56:03;;;;;;;16.20;10.85;;;26.80;99.90;;;;;;1811791;77;21182;-72
2022/11/25 01:58:37;;;;;;;12.30;9.33;;;26.80;99.90;;;;;;1813824;78;21131;-73
2022/11/25 02:01:09;;;;;;;13.28;9.50;;;26.80;99.90;;;;;;1804767;78;21212;-73
2022/11/25 02:03:49;;;;;;;12.88;11.03;;;26.90;99.90;;;;;;1777041;79;22362;-74
2022/11/25 02:06:29;;;;;;;16.77;10.65;;;26.90;99.90;;;;;;1736992;80;21183;-74
2022/11/25 02:09:05;;;;;;;13.62;10.15;;;26.80;99.90;;;;;;1789056;78;21229;-75
2022/11/25 02:11:39;;;;;;;10.80;8.90;;;26.80;99.90;;;;;;1786174;78;21647;-75
2022/11/25 02:14:11;;;;;;;13.83;8.85;;;26.80;99.90;;;;;;1786734;79;21178;-75
2022/11/25 02:16:46;;;;;;;12.00;9.50;;;26.90;99.90;;;;;;1755584;79;21173;-74
2022/11/25 02:19:26;;;;;;;11.73;7.95;;;26.90;99.90;;;;;;1764463;79;21253;-75
2022/11/25 02:21:59;;;;;;;11.50;8.55;;;27.00;99.90;;;;;;1717536;83;21539;-76
2022/11/25 02:24:41;;;;;;;11.55;7.47;;;27.00;99.90;;;;;;1742123;79;21666;-73
2022/11/25 02:27:13;;;;;;;9.25;5.70;;;27.00;99.90;;;;;;1756164;79;21094;-74
2022/11/25 02:29:45;;;;;;;8.10;5.62;;;27.00;99.90;;;;;;1761145;79;21926;-75
2022/11/25 02:32:16;;;;;;;9.65;5.83;;;27.00;99.90;;;;;;1814603;76;21164;-75
2022/11/25 02:34:50;;;;;;;9.38;5.45;;;27.00;99.90;;;;;;1801100;78;21082;-74
2022/11/25 02:37:23;;;;;;;8.15;5.67;;;27.00;99.90;;;;;;1803454;78;21302;-72
2022/11/25 02:39:54;;;;;;;9.18;5.83;;;27.00;99.90;;;;;;1812545;78;21287;-73
2022/11/25 02:42:29;;;;;;;10.18;5.80;;;27.00;99.90;;;;;;1819752;78;21201;-74
2022/11/25 02:45:01;;;;;;;9.00;6.10;;;26.90;99.90;;;;;;1801141;78;21594;-73
2022/11/25 02:47:32;;;;;;;10.78;6.05;;;26.90;99.90;;;;;;1800305;78;21289;-74
2022/11/25 02:50:03;;;;;;;13.65;6.80;;;26.90;99.90;;;;;;1819362;78;21084;-74
2022/11/25 02:52:35;;;;;;;7.87;6.10;;;26.90;99.90;;;;;;1810058;78;21618;-74
2022/11/25 02:55:06;;;;;;;9.38;6.62;;;26.90;99.90;;;;;;1802968;78;22061;-74
2022/11/25 02:57:37;;;;;;;8.75;6.03;;;26.80;99.90;;;;;;1799515;78;21075;-74
2022/11/25 03:00:09;;;;;;;7.08;5.65;;;26.80;99.90;;;;;;1815592;78;21653;-74
2022/11/25 03:02:41;;;;;;;7.75;5.30;;;26.80;99.90;;;;;;1818840;77;21850;-73
2022/11/25 03:05:15;;;;;;;8.05;6.20;;;26.70;99.90;;;;;;1804168;78;21248;-72
2022/11/25 03:07:46;;;;;;;8.00;5.40;;;26.70;99.90;;;;;;1800715;78;21634;-73
2022/11/25 03:10:17;;;;;;;6.53;5.20;;;26.70;99.90;;;;;;1727035;81;21155;-72
2022/11/25 03:12:50;;;;;;;9.05;5.47;;;26.70;99.90;;;;;;1772001;79;21124;-74
2022/11/25 03:15:22;;;;;;;6.45;5.42;;;26.70;99.90;;;;;;1758508;80;21203;-74
2022/11/25 03:17:54;;;;;;;9.38;5.65;;;26.70;99.90;;;;;;1746191;79;21202;-74
2022/11/25 03:20:25;;;;;;;8.15;5.70;;;26.70;99.90;;;;;;1785699;79;21190;-73
2022/11/25 03:22:56;;;;;;;8.50;5.03;;;26.70;99.90;;;;;;1787426;78;21311;-74
2022/11/25 03:25:27;;;;;;;5.85;4.37;;;26.70;99.90;;;;;;1793327;78;21201;-73
2022/11/25 03:27:58;;;;;;;6.90;4.00;;;26.70;99.90;;;;;;1790133;78;21217;-73
2022/11/25 03:30:49;;;;;;;7.22;4.60;;;26.70;99.90;;;;;;1791254;78;21634;-73
2022/11/25 03:33:21;;;;;;;7.65;3.52;;;26.70;99.90;;;;;;1784615;78;21755;-75
2022/11/25 03:35:55;;;;;;;4.47;3.58;;;26.70;99.90;;;;;;1802007;77;21203;-73
2022/11/25 03:38:26;;;;;;;6.17;4.72;;;26.60;99.90;;;;;;1803705;78;21228;-72
2022/11/25 03:41:18;;;;;;;4.97;3.80;;;26.60;99.90;;;;;;1805460;77;21134;-73
2022/11/25 03:43:50;;;;;;;6.97;3.92;;;26.60;99.90;;;;;;1806941;77;21650;-72
2022/11/25 03:46:21;;;;;;;5.22;4.00;;;26.60;99.90;;;;;;1818681;77;21149;-72
2022/11/25 03:48:52;;;;;;;7.30;4.00;;;26.60;99.90;;;;;;1821853;76;21127;-72
2022/11/25 03:51:23;;;;;;;6.17;4.62;;;26.60;99.90;;;;;;1805711;78;21128;-73
2022/11/25 03:53:54;;;;;;;6.97;3.90;;;26.60;99.90;;;;;;1806873;78;21274;-72
2022/11/25 03:56:25;;;;;;;6.37;3.87;;;26.50;99.90;;;;;;1820079;77;21164;-72
2022/11/25 03:58:56;;;;;;;7.67;4.58;;;26.50;99.90;;;;;;1801045;78;21246;-73
2022/11/25 04:01:27;;;;;;;7.72;4.75;;;26.50;99.90;;;;;;1823004;77;21734;-73
2022/11/25 04:03:59;;;;;;;7.67;5.25;;;26.60;99.90;;;;;;1790318;78;21671;-73
2022/11/25 04:06:31;;;;;;;5.67;4.22;;;26.60;99.90;;;;;;1832413;77;21207;-73
2022/11/25 04:09:16;;;;;;;5.60;4.45;;;26.70;99.90;;;;;;1829826;76;21533;-73
2022/11/25 04:14:27;;;;;;;6.83;4.67;;;26.80;99.90;;;;;;1806989;77;21210;-74
2022/11/25 04:17:00;;;;;;;5.92;4.55;;;26.90;99.90;;;;;;1812642;77;21148;-73
2022/11/25 04:19:31;;;;;;;6.83;4.75;;;27.00;99.90;;;;;;1832259;76;21328;-73
2022/11/25 04:22:03;;;;;;;6.85;4.80;;;27.10;99.90;;;;;;1827848;77;21644;-73
2022/11/25 04:24:35;;;;;;;8.68;5.17;;;27.10;99.90;;;;;;1808039;77;21249;-72
2022/11/25 04:27:07;;;;;;;6.72;4.53;;;27.20;99.90;;;;;;1742713;80;21241;-73
2022/11/25 04:29:38;;;;;;;8.85;5.30;;;27.40;99.90;;;;;;1733782;80;21159;-74
2022/11/25 04:32:09;;;;;;;6.97;4.58;;;27.60;99.90;;;;;;1790279;78;21243;-73
2022/11/25 04:34:40;;;;;;;7.20;4.08;;;27.80;99.90;;;;;;1753052;79;21167;-72
2022/11/25 04:37:11;;;;;;;7.40;4.40;;;28.00;99.90;;;;;;1799433;77;21207;-73
2022/11/25 04:39:49;;;;;;;6.78;4.55;;;28.20;99.90;;;;;;1816121;76;21253;-75
2022/11/25 04:42:33;;;;;;;5.83;4.10;;;28.40;99.90;;;;;;1821035;75;21162;-73
2022/11/25 04:45:07;;;;;;;7.50;4.30;;;28.50;99.90;;;;;;1794051;78;21124;-73
2022/11/25 04:47:40;;;;;;;8.93;5.03;;;28.70;99.90;;;;;;1797260;78;21537;-73
2022/11/25 04:50:16;;;;;;;6.28;4.55;;;28.80;99.90;;;;;;1797671;78;21612;-73
2022/11/25 04:52:47;;;;;;;6.15;4.53;;;29.00;99.90;;;;;;1810074;77;21643;-73
2022/11/25 04:55:18;;;;;;;8.33;4.97;;;29.20;99.80;;;;;;1817786;77;21128;-73
2022/11/25 04:57:49;;;;;;;5.33;4.47;;;29.30;99.50;;;;;;1793882;78;21132;-73
2022/11/25 05:00:22;;;;;;;7.53;4.37;;;29.40;99.40;;;;;;1794062;78;21260;-73
2022/11/25 05:02:54;;;;;;;7.97;4.72;;;29.40;99.60;;;;;;1805941;77;21235;-72
2022/11/25 05:05:25;;;;;;;8.95;4.53;;;29.60;99.80;;;;;;1814393;77;21093;-74
2022/11/25 05:07:58;;;;;;;8.88;4.72;;;29.60;99.20;;;;;;1810271;78;21118;-73
2022/11/25 05:10:29;;;;;;;5.55;4.35;;;29.70;99.50;;;;;;1784508;78;21644;-73
2022/11/25 05:13:00;;;;;;;5.85;4.40;;;29.80;99.50;;;;;;1801473;77;21175;-73
2022/11/25 05:15:37;;;;;;;8.65;4.62;;;29.80;98.40;;;;;;1817527;77;21180;-74
2022/11/25 05:18:07;;;;;;;5.60;4.30;;;29.90;98.00;;;;;;1824165;76;21183;-74
2022/11/25 05:20:39;;;;;;;10.25;4.25;;;30.00;97.70;;;;;;1810209;77;21160;-72
2022/11/25 05:23:10;;;;;;;9.48;4.67;;;30.00;97.50;;;;;;1753270;80;21237;-72
2022/11/25 05:25:42;;;;;;;9.03;4.25;;;30.00;96.50;;;;;;1813979;76;21199;-74
2022/11/25 05:28:14;;;;;;;5.58;4.08;;;30.10;96.40;;;;;;1836512;76;21187;-74
2022/11/25 05:30:47;;;;;;;6.78;4.10;;;30.10;95.90;;;;;;1817353;77;21163;-73
2022/11/25 05:33:18;;;;;;;5.75;3.85;;;30.30;95.60;;;;;;1815223;76;21696;-73
2022/11/25 05:35:55;;;;;;;8.60;3.80;;;30.40;95.20;;;;;;1818120;77;21678;-74
2022/11/25 05:38:29;;;;;;;6.45;4.08;;;30.50;94.80;;;;;;1793258;79;21156;-75
2022/11/25 05:41:04;;;;;;;4.40;3.85;;;30.60;94.90;;;;;;1815586;77;21207;-75
2022/11/25 05:43:36;;;;;;;10.45;3.80;;;30.70;94.80;;;;;;1831371;76;21944;-73
2022/11/25 05:46:07;;;;;;;5.17;3.45;;;30.80;95.60;;;;;;1814857;78;21215;-73
2022/11/25 05:48:39;;;;;;;6.20;3.47;;;30.80;93.20;;;;;;1744514;79;21157;-73
2022/11/25 05:51:11;;;;;;;6.05;3.75;;;30.90;93.40;;;;;;1813238;77;21605;-73
2022/11/25 05:53:42;;;;;;;5.87;4.65;;;31.00;94.70;;;;;;1825527;77;21742;-73
2022/11/25 05:56:14;;;;;;;6.83;4.95;;;31.00;94.40;;;;;;1818933;77;21111;-72
2022/11/25 05:58:45;;;;;;;6.97;3.58;;;31.00;94.60;;;;;;1820344;77;21119;-73
2022/11/25 06:01:17;;;;;;;5.67;4.25;;;30.90;93.90;;;;;;1809618;77;21697;-73
2022/11/25 06:03:48;;;;;;;6.87;3.70;;;30.80;93.90;;;;;;1815828;77;21128;-73
2022/11/25 06:06:20;;;;;;;8.20;4.35;;;30.70;93.60;;;;;;1817209;76;21096;-73
2022/11/25 06:08:51;;;;;;;7.28;4.03;;;30.70;93.50;;;;;;1795459;78;21331;-72
2022/11/25 06:11:22;;;;;;;6.28;4.28;;;30.60;94.10;;;;;;1769251;79;21174;-72
2022/11/25 06:13:53;;;;;;;5.85;4.40;;;30.70;94.00;;;;;;1836625;76;21146;-74
2022/11/25 06:16:24;;;;;;;5.50;4.03;;;30.70;94.30;;;;;;1831101;76;21138;-74
2022/11/25 06:18:55;;;;;;;6.50;3.90;;;30.80;94.50;;;;;;1827978;76;21100;-72
2022/11/25 06:21:27;;;;;;;6.37;4.70;;;30.70;94.70;;;;;;1840358;76;21659;-73
2022/11/25 06:24:01;;;;;;;10.63;5.50;;;30.70;94.60;;;;;;1834115;75;21645;-73
2022/11/25 06:26:33;;;;;;;6.17;4.20;;;30.60;94.80;;;;;;1831970;76;21777;-75
2022/11/25 06:29:04;;;;;;;6.62;4.70;;;30.50;95.70;;;;;;1833341;76;21218;-74
2022/11/25 06:31:34;;;;;;;7.78;4.30;;;30.40;95.10;;;;;;1824230;75;21128;-72
2022/11/25 06:34:08;;;;;;;7.22;4.92;;;30.30;95.50;;;;;;1830803;77;21202;-72
2022/11/25 06:36:38;;;;;;;8.83;5.10;;;30.20;95.30;;;;;;1836760;76;21146;-74
2022/11/25 06:39:09;;;;;;;8.78;4.53;;;30.10;95.70;;;;;;1832823;76;21688;-73
2022/11/25 06:41:40;;;;;;;6.58;4.55;;;30.00;95.40;;;;;;1837378;77;21158;-73
2022/11/25 06:44:11;;;;;;;7.35;4.75;;;30.00;96.20;;;;;;1808233;77;21134;-74
2022/11/25 06:46:48;;;;;;;7.97;4.67;;;29.90;95.70;;;;;;1814868;77;21150;-73
2022/11/25 06:49:20;;;;;;;6.85;4.55;;;29.80;95.50;;;;;;1799719;78;21678;-73
2022/11/25 06:51:51;;;;;;;5.67;4.65;;;29.90;95.70;;;;;;1794206;78;21272;-73
2022/11/25 06:54:22;;;;;;;9.70;4.70;;;29.80;95.90;;;;;;1809900;77;21191;-74
2022/11/25 06:56:53;;;;;;;13.03;6.17;;;29.80;96.00;;;;;;1816920;77;21092;-74
2022/11/25 06:59:26;;;;;;;7.50;5.17;;;29.80;96.00;;;;;;1788262;77;21263;-74
2022/11/25 07:01:57;;;;;;;8.10;4.70;;;30.00;95.60;;;;;;1820976;77;21586;-73
2022/11/25 07:04:30;;;;;;;7.47;4.75;;;30.00;94.70;;;;;;1844072;75;21683;-72
2022/11/25 07:07:01;;;;;;;7.00;4.53;;;30.10;94.50;;;;;;1821642;77;21150;-74
2022/11/25 07:09:32;;;;;;;6.67;4.55;;;30.20;95.30;;;;;;1763047;78;21742;-74
2022/11/25 07:12:04;;;;;;;5.50;4.20;;;30.20;94.80;;;;;;1743532;81;21189;-73
2022/11/25 07:14:35;;;;;;;6.12;4.80;;;30.30;95.20;;;;;;1826691;76;21590;-73
2022/11/25 07:17:07;;;;;;;5.62;4.20;;;30.40;94.30;;;;;;1819493;78;21612;-73
2022/11/25 07:19:39;;;;;;;8.30;4.75;;;30.50;93.90;;;;;;1807072;77;21265;-74
2022/11/25 07:22:13;;;;;;;11.12;5.65;;;30.50;94.00;;;;;;1795717;78;21194;-73
2022/11/25 07:24:44;;;;;;;7.10;3.98;;;30.50;94.70;;;;;;1815119;77;21225;-73
2022/11/25 07:27:16;;;;;;;6.53;3.87;;;30.50;94.40;;;;;;1847850;75;21652;-73
2022/11/25 07:29:49;;;;;;;7.40;4.22;;;30.50;94.40;;;;;;1823967;77;21164;-73
2022/11/25 07:32:21;;;;;;;6.92;3.98;;;30.50;94.00;;;;;;1811862;77;21190;-74
2022/11/25 07:34:54;;;;;;;6.55;4.55;;;30.50;94.50;;;;;;1826582;77;21258;-74
2022/11/25 07:37:26;;;;;;;8.33;4.30;;;30.50;94.10;;;;;;1824306;76;21132;-74
2022/11/25 07:39:59;;;;;;;6.22;4.00;;;30.50;94.30;;;;;;1824429;77;21206;-72
2022/11/25 07:42:30;;;;;;;8.53;4.50;;;30.60;93.20;;;;;;1801697;78;21202;-73
2022/11/25 07:45:01;;;;;;;7.47;4.95;;;30.60;94.00;;;;;;1804023;77;21164;-73
2022/11/25 07:47:37;;;;;;;6.78;4.83;;;30.70;93.40;;;;;;1809349;77;21174;-73
2022/11/25 07:50:10;;;;;;;6.55;4.30;;;30.80;93.30;;;;;;1835933;76;21232;-72
2022/11/25 07:52:41;;;;;;;8.35;4.65;;;30.80;93.10;;;;;;1817092;77;21589;-73
2022/11/25 07:55:12;;;;;;;7.87;6.85;;;30.80;93.70;;;;;;1819668;76;21342;-74
2022/11/25 07:57:43;;;;;;;10.20;5.08;;;30.70;93.20;;;;;;1808075;77;21251;-74
2022/11/25 08:00:15;;;;;;;6.62;4.10;;;30.60;93.00;;;;;;1822641;77;21623;-74
2022/11/25 08:02:49;;;;;;;6.00;3.40;;;30.60;92.90;;;;;;1818328;77;21160;-72
2022/11/25 08:05:21;;;;;;;4.83;3.33;;;30.60;92.20;;;;;;1816378;77;21147;-73
2022/11/25 08:07:52;;;;;;;6.17;3.27;;;30.60;92.30;;;;;;1815427;77;21143;-72
2022/11/25 08:10:24;;;;;;;4.50;2.98;;;30.60;92.50;;;;;;1812120;77;21128;-72
2022/11/25 08:12:55;;;;;;;4.37;3.12;;;30.60;91.90;;;;;;1815173;77;21183;-72
2022/11/25 08:15:26;;;;;;;4.15;3.20;;;30.60;91.80;;;;;;1818544;77;21116;-72
2022/11/25 08:17:57;;;;;;;4.03;2.95;;;30.60;92.00;;;;;;1827045;76;21270;-72
2022/11/25 08:20:30;;;;;;;4.65;3.20;;;30.70;92.10;;;;;;1795132;77;21185;-73
2022/11/25 08:23:01;;;;;;;5.42;3.10;;;30.70;91.30;;;;;;1810830;78;21525;-73
2022/11/25 08:25:32;;;;;;;3.98;3.15;;;30.80;91.60;;;;;;1797972;79;21140;-72
2022/11/25 08:28:03;;;;;;;6.58;3.15;;;30.80;91.30;;;;;;1813423;77;21199;-73
2022/11/25 08:30:34;;;;;;;6.45;3.12;;;30.90;91.20;;;;;;1824647;77;21229;-73
2022/11/25 08:33:06;;;;;;;4.75;3.15;;;30.90;90.70;;;;;;1825538;77;21219;-72
2022/11/25 08:35:39;;;;;;;4.97;4.15;;;30.90;90.20;;;;;;1823191;76;21203;-73
2022/11/25 08:38:11;;;;;;;8.38;3.33;;;30.90;91.00;;;;;;1801052;77;21236;-73
2022/11/25 08:40:44;;;;;;;4.20;2.77;;;30.90;91.10;;;;;;1819490;76;21214;-72
2022/11/25 08:43:20;;;;;;;5.20;2.90;;;30.90;91.30;;;;;;1827576;76;21198;-72
2022/11/25 08:45:52;;;;;;;3.27;2.47;;;30.90;90.70;;;;;;1814376;77;21591;-71
2022/11/25 08:48:23;;;;;;;8.68;3.35;;;30.90;90.80;;;;;;1786596;78;21177;-72
2022/11/25 08:50:55;;;;;;;4.80;3.52;;;30.80;90.30;;;;;;1814745;76;21877;-73
2022/11/25 08:53:27;;;;;;;5.12;3.70;;;30.80;90.40;;;;;;1795129;78;21192;-72
2022/11/25 08:55:58;;;;;;;4.08;2.75;;;30.80;90.70;;;;;;1791059;78;21152;-73
2022/11/25 08:58:29;;;;;;;4.60;2.98;;;30.80;90.80;;;;;;1782067;78;21226;-73
2022/11/25 09:01:01;;;;;;;4.62;3.00;;;30.80;90.80;;;;;;1794077;78;21123;-74
2022/11/25 09:03:37;;;;;;;5.80;2.98;;;30.80;90.50;;;;;;1827384;77;21832;-75
2022/11/25 09:06:12;;;;;;;5.72;3.05;;;30.80;90.50;;;;;;1810757;77;21157;-72
2022/11/25 09:08:46;;;;;;;5.00;3.05;;;30.80;90.90;;;;;;1813926;76;21701;-71
2022/11/25 09:11:17;;;;;;;4.83;3.33;;;30.70;90.50;;;;;;1824465;77;21167;-72
2022/11/25 09:13:48;;;;;;;5.10;3.47;;;30.70;90.60;;;;;;1817097;77;21797;-72
2022/11/25 09:16:19;;;;;;;4.87;3.30;;;30.70;91.30;;;;;;1751763;79;21250;-73
2022/11/25 09:18:51;;;;;;;6.22;3.33;;;30.70;91.00;;;;;;1829255;75;21234;-71
2022/11/25 09:21:23;;;;;;;6.50;3.42;;;30.70;90.80;;;;;;1800535;78;21243;-71
2022/11/25 09:23:55;;;;;;;7.28;3.37;;;30.60;90.70;;;;;;1827911;76;21111;-71
2022/11/25 09:26:34;;;;;;;3.95;3.00;;;30.60;90.90;;;;;;1812461;76;21205;-71
2022/11/25 09:29:03;;;;;;;5.17;3.62;;;30.60;90.90;;;;;;1751143;78;21178;-72
2022/11/25 09:31:36;;;;;;;6.85;3.37;;;30.60;91.50;;;;;;1808588;77;21213;-74
2022/11/25 09:34:08;;;;;;;4.78;3.30;;;30.50;91.50;;;;;;1826581;77;21226;-73
2022/11/25 09:36:40;;;;;;;7.42;4.20;;;30.50;91.40;;;;;;1820686;75;21192;-73
2022/11/25 09:39:12;;;;;;;5.72;3.92;;;30.50;91.30;;;;;;1818963;77;21226;-73
2022/11/25 09:47:51;;;;;;;8.30;4.50;;;30.40;91.60;;;;;;1824946;76;21120;-72
2022/11/25 09:50:35;;;;;;;4.37;3.02;;;30.40;91.80;;;;;;1826724;76;21150;-72
2022/11/25 09:53:17;;;;;;;6.47;3.95;;;30.30;91.80;;;;;;1788283;76;21207;-72
2022/11/25 09:55:50;;;;;;;6.37;3.67;;;30.30;91.60;;;;;;1823105;76;21117;-73
2022/11/25 09:58:34;;;;;;;6.05;3.45;;;30.20;91.90;;;;;;1811602;77;21210;-72
2022/11/25 10:01:07;;;;;;;5.70;3.42;;;30.20;91.90;;;;;;1802075;76;21202;-73
2022/11/25 10:03:58;;;;;;;7.05;3.90;;;30.20;92.00;;;;;;1820292;77;21271;-74
2022/11/25 10:06:33;;;;;;;7.97;4.33;;;30.10;92.00;;;;;;1808817;76;21699;-73
2022/11/25 10:09:12;;;;;;;8.05;4.30;;;30.10;92.10;;;;;;1820759;77;21198;-73
2022/11/25 10:11:48;;;;;;;5.25;3.85;;;30.10;92.30;;;;;;1817946;77;21168;-71
2022/11/25 10:14:31;;;;;;;8.88;4.10;;;30.00;92.20;;;;;;1815070;76;21629;-73
2022/11/25 10:17:13;;;;;;;7.80;3.75;;;30.00;92.40;;;;;;1815931;77;21173;-72
2022/11/25 10:20:02;;;;;;;7.15;4.78;;;29.90;92.40;;;;;;1834094;76;21249;-73
2022/11/25 10:22:39;;;;;;;5.22;3.55;;;29.90;92.50;;;;;;1817988;77;21176;-73
2022/11/25 10:25:26;;;;;;;4.87;3.75;;;29.80;92.50;;;;;;1817794;77;21132;-73
2022/11/25 10:28:19;;;;;;;7.60;3.92;;;29.80;92.60;;;;;;1811695;77;21167;-72
2022/11/25 10:31:04;;;;;;;7.72;4.35;;;29.80;92.80;;;;;;1806768;77;21144;-72
2022/11/25 10:33:56;;;;;;;12.77;5.60;;;29.80;92.90;;;;;;1811526;76;21166;-73
2022/11/25 10:36:40;;;;;;;10.03;6.47;;;29.70;92.90;;;;;;1815472;77;21208;-73
2022/11/25 10:39:19;;;;;;;11.50;5.87;;;29.70;93.00;;;;;;1828899;76;21198;-73
2022/11/25 10:42:03;;;;;;;8.35;4.40;;;29.70;93.10;;;;;;1795612;77;21955;-73
2022/11/25 10:44:39;;;;;;;8.48;4.30;;;29.70;93.20;;;;;;1824918;77;21183;-73
2022/11/25 10:47:38;;;;;;;10.07;4.60;;;29.70;93.30;;;;;;1821861;77;21729;-74
2022/11/25 10:50:31;;;;;;;6.33;4.42;;;29.60;93.40;;;;;;1821675;77;21218;-73
2022/11/25 10:53:07;;;;;;;9.40;5.67;;;29.50;93.50;;;;;;1818827;77;21180;-75
2022/11/25 10:55:44;;;;;;;8.28;4.80;;;29.50;93.60;;;;;;1803222;77;21123;-74
2022/11/25 10:58:30;;;;;;;11.65;5.80;;;29.50;93.60;;;;;;1832404;76;21115;-74
2022/11/25 11:01:15;;;;;;;9.10;4.53;;;29.50;93.80;;;;;;1824369;76;21119;-75
2022/11/25 11:03:57;;;;;;;6.33;4.15;;;29.50;93.80;;;;;;1804069;78;21206;-73
2022/11/25 11:06:44;;;;;;;8.50;5.33;;;29.50;93.80;;;;;;1804096;77;21651;-73
2022/11/25 11:09:33;;;;;;;10.55;5.60;;;29.40;93.90;;;;;;1853238;76;21219;-74
2022/11/25 11:12:21;;;;;;;8.45;5.03;;;29.40;94.10;;;;;;1874674;75;21251;-73
2022/11/25 11:14:55;;;;;;;8.23;4.30;;;29.40;94.00;;;;;;1794425;77;21131;-73
2022/11/25 11:17:35;;;;;;;9.78;4.90;;;29.40;94.00;;;;;;1816183;76;21184;-74
2022/11/25 11:20:19;;;;;;;6.87;4.33;;;29.40;94.00;;;;;;1830158;76;21120;-74
2022/11/25 11:23:07;;;;;;;8.15;4.90;;;29.30;93.90;;;;;;1827481;76;21911;-72
2022/11/25 11:25:58;;;;;;;10.00;4.80;;;29.30;94.00;;;;;;1824764;76;21207;-73
2022/11/25 11:28:38;;;;;;;7.35;5.33;;;29.30;93.90;;;;;;1823692;77;21217;-74
2022/11/25 11:31:23;;;;;;;10.78;6.05;;;29.30;93.80;;;;;;1830165;76;21120;-75
2022/11/25 11:34:25;;;;;;;13.98;7.35;;;29.30;94.00;;;;;;1823649;76;21186;-74
2022/11/25 11:37:29;;;;;;;8.43;6.70;;;29.30;94.00;;;;;;1835957;77;21184;-81
2022/11/25 11:40:24;;;;;;;11.43;6.72;;;29.20;94.00;;;;;;1771788;79;21185;-82
2022/11/25 11:43:35;;;;;;;15.98;7.83;;;29.30;94.00;;;;;;1806740;77;21299;-82
2022/11/25 11:46:14;;;;;;;13.48;7.67;;;29.30;94.10;;;;;;1845001;76;21160;-84
2022/11/25 11:49:17;;;;;;;22.05;8.85;;;29.30;94.10;;;;;;1817704;77;21177;-83
2022/11/25 11:52:10;;;;;;;27.62;8.40;;;29.20;94.20;;;;;;1836546;75;21237;-82
2022/11/25 11:54:56;;;;;;;19.95;8.23;;;29.20;94.30;;;;;;1838577;75;21547;-81
2022/11/25 11:57:53;;;;;;;14.05;7.05;;;29.30;94.40;;;;;;1830748;77;21232;-83
2022/11/25 12:00:29;;;;;;;12.30;6.92;;;29.30;94.30;;;;;;1789329;77;21305;-80
2022/11/25 12:03:05;;;;;;;14.95;7.30;;;29.20;94.10;;;;;;1797667;78;21154;-83
2022/11/25 12:05:37;;;;;;;13.85;6.78;;;29.20;94.10;;;;;;1821914;77;21265;-83
2022/11/25 12:08:31;;;;;;;13.62;7.17;;;29.20;94.10;;;;;;1812166;76;21607;-82
2022/11/25 12:11:05;;;;;;;12.10;7.25;;;29.20;94.10;;;;;;1825074;75;21176;-83
2022/11/25 12:14:02;;;;;;;15.53;8.40;;;29.20;94.10;;;;;;1824035;75;21091;-81
2022/11/25 12:16:41;;;;;;;9.83;6.25;;;29.20;94.10;;;;;;1820132;77;21158;-82
2022/11/25 12:19:23;;;;;;;12.15;7.03;;;29.20;94.10;;;;;;1814111;77;21234;-83
2022/11/25 12:22:06;;;;;;;17.70;8.20;;;29.10;94.10;;;;;;1799796;77;21144;-82
2022/11/25 12:25:11;;;;;;;15.05;8.58;;;29.20;94.30;;;;;;1823088;77;21163;-80
2022/11/25 12:27:41;;;;;;;16.20;7.78;;;29.10;94.50;;;;;;1818517;77;21634;-78
2022/11/25 12:30:38;;;;;;;13.50;7.40;;;29.10;94.60;;;;;;1810206;77;21148;-80
2022/11/25 12:33:21;;;;;;;17.35;7.80;;;29.10;94.50;;;;;;1785312;77;21116;-82
2022/11/25 12:36:05;;;;;;;11.40;7.75;;;29.10;94.50;;;;;;1820649;77;21105;-80
2022/11/25 12:38:56;;;;;;;14.55;8.03;;;29.10;94.50;;;;;;1779888;78;21578;-81
2022/11/25 12:41:34;;;;;;;12.60;7.73;;;29.10;94.50;;;;;;1823801;76;21151;-78
2022/11/25 12:44:15;;;;;;;14.33;7.83;;;29.00;95.00;;;;;;1815639;76;21138;-83
2022/11/25 12:46:48;;;;;;;15.53;7.72;;;29.00;94.70;;;;;;1823885;75;21219;-82
2022/11/25 12:49:28;;;;;;;12.13;7.53;;;29.00;94.80;;;;;;1763245;80;21162;-80
2022/11/25 12:52:28;;;;;;;15.35;7.45;;;29.00;95.00;;;;;;1824757;77;21259;-81
2022/11/25 12:55:18;;;;;;;14.73;7.55;;;29.00;95.00;;;;;;1826312;76;21229;-79
2022/11/25 12:58:23;;;;;;;13.03;7.62;;;29.00;95.10;;;;;;1822198;76;21163;-82
2022/11/25 13:01:02;;;;;;;16.60;8.90;;;28.90;95.00;;;;;;1816774;75;21238;-81
2022/11/25 13:03:59;;;;;;;19.42;8.40;;;29.00;95.00;;;;;;1830596;76;21097;-80
2022/11/25 13:06:50;;;;;;;10.20;7.28;;;29.00;94.90;;;;;;1800202;78;21226;-80
2022/11/25 13:09:39;;;;;;;16.55;7.92;;;29.00;94.60;;;;;;1794597;77;21192;-82
2022/11/25 13:12:19;;;;;;;12.65;6.97;;;28.90;94.50;;;;;;1817367;76;21309;-82
2022/11/25 13:15:14;;;;;;;12.03;7.12;;;28.90;94.60;;;;;;1814090;77;21285;-83
2022/11/25 13:17:47;;;;;;;9.85;6.80;;;29.00;94.60;;;;;;1819070;76;21248;-81
2022/11/25 13:20:35;;;;;;;10.82;7.10;;;29.00;94.60;;;;;;1825277;77;21837;-82
2022/11/25 13:23:35;;;;;;;13.15;7.83;;;29.00;94.80;;;;;;1832018;75;21179;-80
2022/11/25 13:26:32;;;;;;;13.08;7.47;;;29.00;95.00;;;;;;1813961;77;21814;-81
2022/11/25 13:29:16;;;;;;;17.73;8.30;;;28.90;95.10;;;;;;1781518;78;21140;-81
2022/11/25 13:32:04;;;;;;;15.30;8.50;;;28.90;95.30;;;;;;1772196;79;21232;-79
2022/11/25 13:34:35;;;;;;;14.73;8.13;;;28.80;95.40;;;;;;1773599;77;21549;-83
2022/11/25 13:37:39;;;;;;;16.57;8.63;;;28.90;95.40;;;;;;1807440;76;21084;-81
2022/11/25 13:40:29;;;;;;;14.40;7.87;;;28.90;95.40;;;;;;1798116;78;22272;-81